Time;durP1;ratioP1;P1;durP2;ratioP2;P2;SDS_P1;SDS_P2;PMS_P1;PMS_P2;Temp;Humidity;BMP_temperature;BMP_pressure;BME280_temperature;BME280_humidity;BME280_pressure;Samples;Min_cycle;Max_cycle;Signal;HPM_P1;HPM_P2
2024/04/15 00:00:35;;;;;;;;;;;;;;;18.99;55.04;99609.16;4569232;26;20344;-72
2024/04/15 00:02:36;;;;;;;;;;;;;;;18.89;55.38;99605.19;4568499;26;19927;-72
2024/04/15 00:04:36;;;;;;;;;;;;;;;18.75;55.77;99607.91;4568752;26;19934;-72
2024/04/15 00:06:36;;;;;;;;;;;;;;;18.74;56.01;99611.66;4568823;26;19960;-72
2024/04/15 00:08:36;;;;;;;;;;;;;;;18.90;55.69;99620.38;4568727;26;19927;-72
2024/04/15 00:10:37;;;;;;;;;;;;;;;18.68;56.13;99623.31;4568326;26;19931;-72
2024/04/15 00:12:38;;;;;;;;;;;;;;;18.83;55.84;99614.97;4568408;26;19931;-72
2024/04/15 00:14:38;;;;;;;;;;;;;;;18.61;56.15;99606.25;4536500;26;19935;-72
2024/04/15 00:16:38;;;;;;;;;;;;;;;18.62;56.06;99607.88;4568546;26;19963;-72
2024/04/15 00:18:38;;;;;;;;;;;;;;;18.58;56.09;99620.19;4568568;26;20344;-72
2024/04/15 00:20:39;;;;;;;;;;;;;;;18.64;55.78;99611.22;4536458;26;19968;-72
2024/04/15 00:22:39;;;;;;;;;;;;;;;18.65;55.93;99596.66;4568255;26;20371;-72
2024/04/15 00:24:39;;;;;;;;;;;;;;;18.48;56.79;99598.94;4568837;25;19934;-71
2024/04/15 00:26:40;;;;;;;;;;;;;;;18.32;57.69;99598.31;4568453;26;19939;-71
2024/04/15 00:28:40;;;;;;;;;;;;;;;18.05;58.18;99617.22;4568540;26;20336;-72
2024/04/15 00:30:40;;;;;;;;;;;;;;;18.02;58.94;99619.50;4568599;26;19932;-72
2024/04/15 00:32:41;;;;;;;;;;;;;;;18.16;58.54;99623.88;4568239;26;19928;-71
2024/04/15 00:34:42;;;;;;;;;;;;;;;18.34;58.45;99607.06;4568684;26;19964;-72
2024/04/15 00:36:44;;;;;;;;;;;;;;;18.60;57.38;99588.34;4536710;26;20041;-72
2024/04/15 00:38:45;;;;;;;;;;;;;;;18.60;56.74;99585.63;4568399;26;20260;-72
2024/04/15 00:40:45;;;;;;;;;;;;;;;18.59;56.44;99581.25;4567625;26;19935;-72
2024/04/15 00:42:45;;;;;;;;;;;;;;;18.49;56.18;99566.28;4568749;26;19939;-72
2024/04/15 00:44:46;;;;;;;;;;;;;;;18.49;56.07;99571.69;4568345;26;19934;-72
2024/04/15 00:46:46;;;;;;;;;;;;;;;18.66;55.86;99568.53;4568464;26;19928;-72
2024/04/15 00:48:46;;;;;;;;;;;;;;;18.59;56.15;99560.44;4568824;26;20348;-72
2024/04/15 00:50:47;;;;;;;;;;;;;;;18.62;56.50;99564.59;4567485;26;19935;-72
2024/04/15 00:52:48;;;;;;;;;;;;;;;18.58;56.34;99564.16;4568454;26;19931;-72
2024/04/15 00:54:49;;;;;;;;;;;;;;;18.55;56.70;99564.59;4569682;26;19931;-72
2024/04/15 00:56:49;;;;;;;;;;;;;;;18.45;56.97;99567.72;4568836;26;20356;-72
2024/04/15 00:58:50;;;;;;;;;;;;;;;18.33;57.54;99580.19;4568795;26;19935;-72
2024/04/15 01:00:52;;;;;;;;;;;;;;;18.36;57.58;99568.97;4567545;26;19973;-72
2024/04/15 01:02:52;;;;;;;;;;;;;;;18.34;57.79;99562.91;4568674;26;19935;-72
2024/04/15 01:04:53;;;;;;;;;;;;;;;18.33;57.37;99561.25;4568849;26;19928;-72
2024/04/15 01:06:53;;;;;;;;;;;;;;;18.35;57.66;99559.19;4568485;26;20361;-72
2024/04/15 01:08:54;;;;;;;;;;;;;;;18.31;57.17;99568.78;4568362;26;19928;-72
2024/04/15 01:10:54;;;;;;;;;;;;;;;18.51;57.46;99557.94;4568871;26;19935;-72
2024/04/15 01:12:54;;;;;;;;;;;;;;;18.22;57.95;99573.53;4570132;26;19927;-72
2024/04/15 01:14:55;;;;;;;;;;;;;;;18.08;58.99;99565.41;4571034;26;19938;-72
2024/04/15 01:16:55;;;;;;;;;;;;;;;18.29;59.23;99560.03;4571393;26;19943;-72
2024/04/15 01:18:55;;;;;;;;;;;;;;;18.46;58.44;99545.03;4570207;26;19968;-72
2024/04/15 01:20:56;;;;;;;;;;;;;;;18.38;58.59;99553.38;4568497;26;19966;-73
2024/04/15 01:23:10;;;;;;;;;;;;;;;18.39;58.37;99555.03;4569072;26;19931;-72
2024/04/15 01:25:10;;;;;;;;;;;;;;;18.41;58.77;99547.53;4567445;25;20367;-72
2024/04/15 01:27:10;;;;;;;;;;;;;;;18.06;59.17;99556.66;4567495;26;19976;-72
2024/04/15 01:29:10;;;;;;;;;;;;;;;18.24;59.18;99558.75;4567947;26;19940;-72
2024/04/15 01:31:11;;;;;;;;;;;;;;;18.09;58.96;99566.25;4566778;26;20422;-72
2024/04/15 01:33:11;;;;;;;;;;;;;;;18.20;59.17;99567.50;4568012;26;19935;-72
2024/04/15 01:35:15;;;;;;;;;;;;;;;18.07;60.19;99554.78;4567823;26;19928;-72
2024/04/15 01:37:15;;;;;;;;;;;;;;;17.85;59.61;99554.94;4568045;26;19934;-72
2024/04/15 01:39:15;;;;;;;;;;;;;;;17.55;60.39;99566.09;4554708;25;19952;-72
2024/04/15 01:41:16;;;;;;;;;;;;;;;17.97;59.63;99549.78;4553023;26;19928;-72
2024/04/15 01:43:17;;;;;;;;;;;;;;;18.13;59.44;99540.47;4560516;26;19971;-72
2024/04/15 01:45:18;;;;;;;;;;;;;;;18.13;60.15;99529.63;4554987;26;20005;-72
2024/04/15 01:47:18;;;;;;;;;;;;;;;18.19;59.71;99517.97;4536913;26;19943;-72
2024/04/15 01:49:18;;;;;;;;;;;;;;;17.96;59.83;99531.03;4562390;25;20264;-73
2024/04/15 01:51:18;;;;;;;;;;;;;;;17.78;59.66;99535.16;4567541;26;19934;-73
2024/04/15 01:53:21;;;;;;;;;;;;;;;17.53;60.48;99530.31;4552580;26;19952;-75
2024/04/15 01:55:21;;;;;;;;;;;;;;;17.48;60.69;99534.66;4548472;26;19928;-72
2024/04/15 01:57:21;;;;;;;;;;;;;;;17.37;60.73;99527.97;4552717;26;19936;-73
2024/04/15 01:59:24;;;;;;;;;;;;;;;17.62;59.92;99533.66;4550940;26;19928;-73
2024/04/15 02:01:24;;;;;;;;;;;;;;;17.40;60.23;99541.06;4536930;26;19983;-72
2024/04/15 02:03:24;;;;;;;;;;;;;;;17.39;60.58;99531.28;4536778;26;20384;-73
2024/04/15 02:05:25;;;;;;;;;;;;;;;17.38;60.28;99519.66;4537281;26;19928;-74
2024/04/15 02:07:25;;;;;;;;;;;;;;;17.45;59.90;99534.03;4536488;26;19948;-74
2024/04/15 02:09:27;;;;;;;;;;;;;;;17.11;60.77;99535.75;4537463;26;19936;-73
2024/04/15 02:11:27;;;;;;;;;;;;;;;17.09;60.66;99547.81;4570832;26;19935;-73
2024/04/15 02:13:28;;;;;;;;;;;;;;;17.00;60.81;99555.22;4577979;26;20328;-73
2024/04/15 02:15:29;;;;;;;;;;;;;;;16.88;61.08;99556.75;4570576;26;19933;-73
2024/04/15 02:17:30;;;;;;;;;;;;;;;17.22;60.36;99549.72;4569475;26;19928;-74
2024/04/15 02:19:33;;;;;;;;;;;;;;;16.99;60.10;99550.84;4569601;25;19935;-74
2024/04/15 02:21:33;;;;;;;;;;;;;;;17.27;60.21;99529.19;4567258;26;19932;-74
2024/04/15 02:23:34;;;;;;;;;;;;;;;17.02;60.47;99533.41;4569464;26;19963;-74
2024/04/15 02:25:34;;;;;;;;;;;;;;;17.03;60.88;99513.47;4569222;26;20598;-74
2024/04/15 02:27:35;;;;;;;;;;;;;;;16.89;60.62;99491.78;4569643;26;19934;-74
2024/04/15 02:29:35;;;;;;;;;;;;;;;17.23;60.05;99486.56;4569527;25;19927;-74
2024/04/15 02:31:36;;;;;;;;;;;;;;;17.00;60.11;99490.41;4568705;26;19957;-74
2024/04/15 02:33:36;;;;;;;;;;;;;;;16.95;60.03;99501.81;4561167;26;19951;-73
2024/04/15 02:35:36;;;;;;;;;;;;;;;16.67;60.74;99512.63;4539395;26;19968;-74
2024/04/15 02:37:37;;;;;;;;;;;;;;;16.55;61.05;99517.72;4539095;26;20690;-73
2024/04/15 02:39:38;;;;;;;;;;;;;;;16.71;60.76;99499.59;4538718;26;19940;-73
2024/04/15 02:41:39;;;;;;;;;;;;;;;16.76;60.80;99521.41;4506775;26;20017;-73
2024/04/15 02:43:39;;;;;;;;;;;;;;;16.59;61.42;99519.00;4546952;26;19935;-74
2024/04/15 02:45:42;;;;;;;;;;;;;;;16.55;61.81;99538.50;4550587;26;19932;-74
2024/04/15 02:47:42;;;;;;;;;;;;;;;16.82;61.53;99517.91;4520161;26;19973;-76
2024/04/15 02:49:43;;;;;;;;;;;;;;;17.02;60.36;99484.81;4552185;26;19928;-74
2024/04/15 02:51:43;;;;;;;;;;;;;;;17.12;60.34;99483.41;4550365;26;19969;-74
2024/04/15 02:53:43;;;;;;;;;;;;;;;17.08;59.46;99470.53;4552089;26;19928;-73
2024/04/15 02:55:43;;;;;;;;;;;;;;;16.78;60.47;99505.84;4550991;26;19996;-73
2024/04/15 02:57:44;;;;;;;;;;;;;;;16.93;60.47;99506.56;4539438;26;19953;-73
2024/04/15 02:59:44;;;;;;;;;;;;;;;16.71;60.87;99504.97;4539131;26;19928;-73
2024/04/15 03:01:44;;;;;;;;;;;;;;;16.87;60.68;99499.25;4506484;26;19928;-74
2024/04/15 03:03:45;;;;;;;;;;;;;;;16.65;60.85;99496.63;4538364;26;19928;-74
2024/04/15 03:05:45;;;;;;;;;;;;;;;16.74;61.18;99509.97;4539006;26;19983;-73
2024/04/15 03:07:48;;;;;;;;;;;;;;;16.20;62.62;99521.19;4538287;26;19935;-73
2024/04/15 03:09:58;;;;;;;;;;;;;;;16.10;62.50;99514.47;4538663;26;19928;-74
2024/04/15 03:11:58;;;;;;;;;;;;;;;16.54;61.55;99505.25;4538328;26;20004;-73
2024/04/15 03:13:58;;;;;;;;;;;;;;;16.60;61.43;99503.66;4538533;26;19936;-73
2024/04/15 03:15:58;;;;;;;;;;;;;;;16.47;61.53;99509.78;4537868;26;19928;-73
2024/04/15 03:17:59;;;;;;;;;;;;;;;16.29;61.90;99519.19;4538396;26;19940;-73
2024/04/15 03:20:00;;;;;;;;;;;;;;;16.02;62.23;99515.44;4537976;26;19963;-73
2024/04/15 03:22:00;;;;;;;;;;;;;;;16.12;62.07;99504.34;4533103;26;20307;-74
2024/04/15 03:24:00;;;;;;;;;;;;;;;16.20;61.68;99501.50;4537690;26;19928;-74
2024/04/15 03:26:01;;;;;;;;;;;;;;;16.50;61.17;99490.53;4538432;26;19935;-74
2024/04/15 03:28:01;;;;;;;;;;;;;;;16.35;60.84;99486.03;4538248;26;19935;-74
2024/04/15 03:30:01;;;;;;;;;;;;;;;16.13;61.57;99490.66;4538402;26;20339;-74
2024/04/15 03:32:02;;;;;;;;;;;;;;;16.10;61.83;99485.66;4548255;26;19943;-73
2024/04/15 03:34:02;;;;;;;;;;;;;;;16.03;61.99;99487.44;4538415;26;19928;-72
2024/04/15 03:36:02;;;;;;;;;;;;;;;16.13;62.08;99490.66;4538130;26;19939;-72
2024/04/15 03:38:03;;;;;;;;;;;;;;;16.01;62.66;99479.56;4538183;26;19928;-73
2024/04/15 03:40:04;;;;;;;;;;;;;;;15.84;62.69;99480.88;4505568;26;19933;-72
2024/04/15 03:42:04;;;;;;;;;;;;;;;15.69;63.10;99483.59;4537224;26;19935;-73
2024/04/15 03:44:05;;;;;;;;;;;;;;;15.64;63.54;99480.63;4537964;26;20372;-73
2024/04/15 03:46:05;;;;;;;;;;;;;;;15.58;64.27;99483.06;4537612;26;19928;-73
2024/04/15 03:48:05;;;;;;;;;;;;;;;15.68;64.04;99485.44;4538010;26;19935;-74
2024/04/15 03:50:06;;;;;;;;;;;;;;;15.70;63.72;99469.91;4506303;26;19928;-73
2024/04/15 03:52:06;;;;;;;;;;;;;;;15.81;63.94;99451.56;4536062;26;19996;-73
2024/04/15 03:54:07;;;;;;;;;;;;;;;16.03;63.00;99434.38;4537768;26;19928;-73
2024/04/15 03:56:07;;;;;;;;;;;;;;;15.69;63.36;99444.00;4537798;26;19939;-73
2024/04/15 03:58:07;;;;;;;;;;;;;;;15.66;63.85;99449.78;4537880;26;19940;-73
2024/04/15 04:00:08;;;;;;;;;;;;;;;15.47;64.34;99459.31;4537503;26;20325;-74
2024/04/15 04:02:08;;;;;;;;;;;;;;;15.46;64.34;99465.72;4537354;26;19932;-73
2024/04/15 04:04:10;;;;;;;;;;;;;;;15.65;63.73;99468.81;4538296;26;20344;-73
2024/04/15 04:06:10;;;;;;;;;;;;;;;15.57;63.96;99478.69;4537940;26;19939;-75
2024/04/15 04:08:11;;;;;;;;;;;;;;;15.57;64.21;99475.19;4537232;26;19928;-74
2024/04/15 04:10:14;;;;;;;;;;;;;;;15.71;63.18;99466.19;4537701;26;19928;-73
2024/04/15 04:12:14;;;;;;;;;;;;;;;15.64;63.57;99468.00;4535627;26;19939;-73
2024/04/15 04:14:17;;;;;;;;;;;;;;;15.40;63.96;99472.72;4538053;26;19932;-74
2024/04/15 04:16:18;;;;;;;;;;;;;;;15.36;64.53;99468.75;4537808;26;20033;-74
2024/04/15 04:18:18;;;;;;;;;;;;;;;15.38;64.22;99472.09;4537928;26;19928;-74
2024/04/15 04:20:18;;;;;;;;;;;;;;;15.18;64.92;99476.41;4537512;26;20372;-73
2024/04/15 04:22:19;;;;;;;;;;;;;;;15.18;64.69;99479.09;4536606;26;19934;-74
2024/04/15 04:24:19;;;;;;;;;;;;;;;15.10;65.05;99477.34;4536757;26;19928;-74
2024/04/15 04:26:19;;;;;;;;;;;;;;;15.26;64.76;99482.50;4537585;26;19934;-73
2024/04/15 04:28:20;;;;;;;;;;;;;;;15.28;64.42;99475.06;4506168;26;19936;-73
2024/04/15 04:30:20;;;;;;;;;;;;;;;15.21;64.62;99455.31;4537895;26;19932;-73
2024/04/15 04:32:21;;;;;;;;;;;;;;;15.12;64.70;99462.66;4542576;26;19939;-74
2024/04/15 04:34:21;;;;;;;;;;;;;;;15.09;64.68;99471.13;4551548;26;19928;-75
2024/04/15 04:36:22;;;;;;;;;;;;;;;15.08;64.44;99474.84;4539168;26;19940;-74
2024/04/15 04:38:22;;;;;;;;;;;;;;;15.07;64.39;99483.94;4537713;26;20562;-73
2024/04/15 04:40:23;;;;;;;;;;;;;;;15.02;64.62;99499.81;4537030;26;19962;-73
2024/04/15 04:42:23;;;;;;;;;;;;;;;15.05;64.96;99506.69;4536904;26;20556;-73
2024/04/15 04:44:25;;;;;;;;;;;;;;;15.12;64.55;99503.03;4537196;26;19928;-74
2024/04/15 04:46:26;;;;;;;;;;;;;;;15.05;64.69;99507.50;4537245;26;19928;-74
2024/04/15 04:48:26;;;;;;;;;;;;;;;15.11;64.73;99511.31;4537122;26;19928;-73
2024/04/15 04:50:26;;;;;;;;;;;;;;;15.12;64.90;99513.00;4536650;26;20603;-74
2024/04/15 04:52:26;;;;;;;;;;;;;;;15.06;65.20;99511.88;4536889;26;19928;-73
2024/04/15 04:54:27;;;;;;;;;;;;;;;15.09;65.07;99511.50;4537162;26;20368;-73
2024/04/15 04:56:27;;;;;;;;;;;;;;;15.08;65.35;99515.22;4537608;26;20277;-73
2024/04/15 04:58:27;;;;;;;;;;;;;;;15.06;65.91;99517.25;4538010;26;19934;-74
2024/04/15 05:00:28;;;;;;;;;;;;;;;15.04;65.86;99516.59;4538437;26;19935;-74
2024/04/15 05:02:28;;;;;;;;;;;;;;;15.13;65.94;99514.66;4536786;26;19931;-73
2024/04/15 05:04:28;;;;;;;;;;;;;;;14.95;65.94;99512.34;4536848;26;19985;-73
2024/04/15 05:06:29;;;;;;;;;;;;;;;15.09;66.21;99513.34;4540482;26;19994;-74
2024/04/15 05:08:29;;;;;;;;;;;;;;;15.16;65.81;99513.44;4540008;26;20458;-73
2024/04/15 05:10:30;;;;;;;;;;;;;;;15.06;66.12;99528.03;4536809;26;19928;-74
2024/04/15 05:12:30;;;;;;;;;;;;;;;15.19;65.96;99524.66;4544585;26;19935;-74
2024/04/15 05:14:31;;;;;;;;;;;;;;;15.20;65.96;99529.03;4547858;26;19928;-74
2024/04/15 05:16:31;;;;;;;;;;;;;;;15.11;66.16;99530.16;4517405;26;20369;-74
2024/04/15 05:18:31;;;;;;;;;;;;;;;15.12;66.33;99526.44;4549912;26;19928;-74
2024/04/15 05:20:36;;;;;;;;;;;;;;;15.17;66.34;99523.19;4553433;26;19928;-74
2024/04/15 05:22:36;;;;;;;;;;;;;;;15.14;66.20;99521.72;4543717;26;19935;-74
2024/04/15 05:24:36;;;;;;;;;;;;;;;15.11;67.05;99528.28;4535767;26;20459;-73
2024/04/15 05:26:37;;;;;;;;;;;;;;;15.15;66.31;99517.16;4536783;26;19936;-73
2024/04/15 05:28:37;;;;;;;;;;;;;;;15.06;66.69;99519.94;4536938;26;20462;-73
2024/04/15 05:30:37;;;;;;;;;;;;;;;14.96;66.60;99520.25;4536419;26;19997;-73
2024/04/15 05:32:38;;;;;;;;;;;;;;;15.06;66.79;99529.91;4536122;26;20031;-72
2024/04/15 05:34:38;;;;;;;;;;;;;;;15.11;66.76;99532.84;4536730;26;19977;-73
2024/04/15 05:36:38;;;;;;;;;;;;;;;15.11;66.77;99532.84;4536694;26;19928;-74
2024/04/15 05:38:39;;;;;;;;;;;;;;;15.01;66.56;99533.16;4537794;26;20337;-74
2024/04/15 05:40:39;;;;;;;;;;;;;;;15.04;66.59;99537.31;4536832;26;19940;-74
2024/04/15 05:42:39;;;;;;;;;;;;;;;15.11;66.77;99528.28;4536496;26;19962;-74
2024/04/15 05:45:01;;;;;;;;;;;;;;;15.17;66.71;99525.88;4537382;26;19934;-76
2024/04/15 05:47:01;;;;;;;;;;;;;;;15.18;66.37;99523.00;4507148;26;19943;-74
2024/04/15 05:49:01;;;;;;;;;;;;;;;15.12;66.13;99513.00;4539850;26;19928;-73
2024/04/15 05:51:02;;;;;;;;;;;;;;;15.22;66.20;99508.16;4538708;26;19996;-73
2024/04/15 05:53:02;;;;;;;;;;;;;;;15.46;65.42;99508.00;4540584;26;19943;-73
2024/04/15 05:55:03;;;;;;;;;;;;;;;15.23;65.68;99514.34;4540356;26;20045;-72
2024/04/15 05:57:03;;;;;;;;;;;;;;;15.22;65.84;99515.38;4540663;26;20276;-74
2024/04/15 05:59:03;;;;;;;;;;;;;;;15.23;65.96;99527.81;4540764;26;19931;-74
2024/04/15 06:01:04;;;;;;;;;;;;;;;15.28;65.75;99522.72;4539010;26;19956;-73
2024/04/15 06:03:04;;;;;;;;;;;;;;;15.21;65.71;99527.19;4539556;26;19928;-73
2024/04/15 06:05:04;;;;;;;;;;;;;;;15.32;65.50;99531.25;4540602;26;20512;-73
2024/04/15 06:07:05;;;;;;;;;;;;;;;15.23;65.45;99525.13;4550388;26;19984;-74
2024/04/15 06:09:05;;;;;;;;;;;;;;;15.33;64.76;99531.06;4515292;26;19935;-74
2024/04/15 06:11:06;;;;;;;;;;;;;;;15.21;65.20;99543.34;4539414;26;19938;-74
2024/04/15 06:13:06;;;;;;;;;;;;;;;15.20;64.98;99533.59;4539411;26;20361;-74
2024/04/15 06:15:06;;;;;;;;;;;;;;;15.28;64.91;99538.88;4507446;26;19932;-74
2024/04/15 06:17:08;;;;;;;;;;;;;;;15.37;64.69;99542.28;4507272;26;19935;-73
2024/04/15 06:19:08;;;;;;;;;;;;;;;15.38;64.30;99542.09;4539070;26;20006;-73
2024/04/15 06:21:08;;;;;;;;;;;;;;;15.30;64.41;99536.84;4506673;26;19936;-73
2024/04/15 06:23:08;;;;;;;;;;;;;;;15.36;64.23;99529.84;4538511;26;19935;-73
2024/04/15 06:25:09;;;;;;;;;;;;;;;15.47;64.15;99515.06;4537995;26;19954;-73
2024/04/15 06:27:09;;;;;;;;;;;;;;;15.51;63.76;99516.34;4536760;26;19959;-73
2024/04/15 06:29:09;;;;;;;;;;;;;;;15.57;63.78;99518.28;4539084;26;19932;-73
2024/04/15 06:31:10;;;;;;;;;;;;;;;15.38;64.12;99517.88;4538029;26;19928;-73
2024/04/15 06:33:10;;;;;;;;;;;;;;;15.50;64.10;99523.59;4539351;26;19936;-73
2024/04/15 06:35:10;;;;;;;;;;;;;;;15.44;64.24;99517.09;4538889;26;19932;-74
2024/04/15 06:37:11;;;;;;;;;;;;;;;15.76;63.31;99514.13;4538898;26;19928;-73
2024/04/15 06:39:11;;;;;;;;;;;;;;;15.69;63.60;99519.44;4538739;26;19928;-74
2024/04/15 06:41:11;;;;;;;;;;;;;;;15.72;63.30;99524.44;4537897;26;19931;-74
2024/04/15 06:43:11;;;;;;;;;;;;;;;15.50;64.00;99525.44;4538758;26;20503;-74
2024/04/15 06:45:12;;;;;;;;;;;;;;;15.60;64.04;99528.66;4538398;26;19932;-73
2024/04/15 06:47:13;;;;;;;;;;;;;;;15.57;63.67;99520.97;4539055;26;19935;-73
2024/04/15 06:49:13;;;;;;;;;;;;;;;15.55;63.35;99518.47;4538506;26;19996;-72
2024/04/15 06:51:14;;;;;;;;;;;;;;;15.58;64.18;99517.28;4538367;26;20383;-73
2024/04/15 06:53:14;;;;;;;;;;;;;;;15.46;64.30;99505.31;4539083;26;20650;-73
2024/04/15 06:55:15;;;;;;;;;;;;;;;15.54;64.30;99513.28;4538613;26;19928;-75
2024/04/15 06:57:15;;;;;;;;;;;;;;;15.79;63.44;99518.28;4538363;26;20264;-74
2024/04/15 06:59:15;;;;;;;;;;;;;;;15.92;63.17;99517.66;4538836;26;19931;-74
2024/04/15 07:01:15;;;;;;;;;;;;;;;15.68;63.69;99515.06;4538606;26;19971;-73
2024/04/15 07:03:16;;;;;;;;;;;;;;;15.59;64.24;99519.75;4539030;26;19996;-74
2024/04/15 07:05:16;;;;;;;;;;;;;;;15.56;64.28;99519.31;4506925;26;20592;-74
2024/04/15 07:07:17;;;;;;;;;;;;;;;15.79;63.64;99523.69;4538112;26;19936;-73
2024/04/15 07:09:17;;;;;;;;;;;;;;;15.95;63.45;99536.09;4538981;26;19928;-74
2024/04/15 07:11:18;;;;;;;;;;;;;;;15.83;64.49;99541.97;4549938;26;19935;-74
2024/04/15 07:13:18;;;;;;;;;;;;;;;15.69;65.02;99537.47;4538598;26;20642;-73
2024/04/15 07:15:19;;;;;;;;;;;;;;;15.74;64.92;99538.56;4538654;26;19928;-73
2024/04/15 07:17:19;;;;;;;;;;;;;;;15.55;65.17;99541.88;4506131;26;20253;-74
2024/04/15 07:19:19;;;;;;;;;;;;;;;15.53;65.86;99546.63;4538349;26;19935;-74
2024/04/15 07:21:21;;;;;;;;;;;;;;;15.68;65.82;99550.09;4537848;26;19928;-74
2024/04/15 07:23:22;;;;;;;;;;;;;;;15.68;65.36;99550.09;4538524;26;20004;-74
2024/04/15 07:25:22;;;;;;;;;;;;;;;15.60;66.35;99548.38;4537761;26;20322;-74
2024/04/15 07:27:22;;;;;;;;;;;;;;;15.89;65.35;99545.78;4505653;26;19932;-73
2024/04/15 07:29:23;;;;;;;;;;;;;;;15.94;65.25;99540.69;4538288;26;19928;-74
2024/04/15 07:31:23;;;;;;;;;;;;;;;15.64;65.43;99537.19;4541082;26;19961;-73
2024/04/15 07:33:24;;;;;;;;;;;;;;;16.02;64.80;99524.38;4543728;26;19935;-75
2024/04/15 07:35:24;;;;;;;;;;;;;;;15.92;64.36;99529.25;4541759;26;20025;-75
2024/04/15 07:37:24;;;;;;;;;;;;;;;16.03;64.39;99514.41;4542917;26;19928;-73
2024/04/15 07:39:26;;;;;;;;;;;;;;;15.87;64.66;99510.13;4551328;26;19944;-77
2024/04/15 07:41:29;;;;;;;;;;;;;;;15.63;64.03;99504.03;4555079;26;19948;-75
2024/04/15 07:43:29;;;;;;;;;;;;;;;15.55;64.03;99502.28;4545625;26;19963;-73
2024/04/15 07:45:33;;;;;;;;;;;;;;;15.34;64.35;99504.97;4538766;26;19935;-73
2024/04/15 07:47:34;;;;;;;;;;;;;;;15.54;64.70;99505.19;4538190;26;19939;-73
2024/04/15 07:49:35;;;;;;;;;;;;;;;15.85;64.43;99513.00;4538115;26;19939;-73
2024/04/15 07:51:35;;;;;;;;;;;;;;;15.45;64.66;99507.16;4537306;26;20289;-74
2024/04/15 07:53:35;;;;;;;;;;;;;;;15.81;64.14;99494.69;4537902;26;19928;-74
2024/04/15 07:55:35;;;;;;;;;;;;;;;15.85;64.63;99487.94;4538386;26;19928;-74
2024/04/15 07:57:36;;;;;;;;;;;;;;;15.89;63.11;99494.59;4537772;26;19928;-74
2024/04/15 07:59:36;;;;;;;;;;;;;;;15.87;64.04;99499.34;4538294;26;19943;-74
2024/04/15 08:01:37;;;;;;;;;;;;;;;15.36;64.35;99498.38;4537351;26;19958;-74
2024/04/15 08:03:37;;;;;;;;;;;;;;;15.09;65.14;99505.28;4537988;26;19935;-74
2024/04/15 08:05:37;;;;;;;;;;;;;;;15.21;65.24;99508.34;4537961;26;20286;-73
2024/04/15 08:07:38;;;;;;;;;;;;;;;15.56;64.65;99497.75;4536677;26;19928;-74
2024/04/15 08:09:39;;;;;;;;;;;;;;;15.68;63.80;99488.13;4537157;26;20249;-73
2024/04/15 08:11:40;;;;;;;;;;;;;;;15.81;63.94;99478.50;4537114;26;19935;-73
2024/04/15 08:13:40;;;;;;;;;;;;;;;15.86;63.71;99468.84;4537411;26;19959;-73
2024/04/15 08:15:44;;;;;;;;;;;;;;;16.01;63.95;99463.38;4536946;26;19940;-74
2024/04/15 08:17:44;;;;;;;;;;;;;;;16.08;62.95;99468.00;4537718;26;20364;-73
2024/04/15 08:19:45;;;;;;;;;;;;;;;15.97;62.77;99450.50;4537548;26;20000;-74
2024/04/15 08:21:45;;;;;;;;;;;;;;;15.91;62.57;99446.72;4537156;26;19928;-74
2024/04/15 08:23:46;;;;;;;;;;;;;;;15.72;63.24;99456.28;4537840;26;19964;-75
2024/04/15 08:25:53;;;;;;;;;;;;;;;15.86;62.70;99439.22;4537832;26;19935;-73
2024/04/15 08:27:54;;;;;;;;;;;;;;;15.71;64.06;99441.94;4536842;26;19938;-74
2024/04/15 08:29:54;;;;;;;;;;;;;;;15.46;64.07;99444.19;4538048;26;19928;-75
2024/04/15 08:31:54;;;;;;;;;;;;;;;15.33;64.61;99454.84;4539952;26;19932;-74
2024/04/15 08:33:55;;;;;;;;;;;;;;;15.69;64.25;99454.78;4506932;26;19932;-74
2024/04/15 08:35:55;;;;;;;;;;;;;;;15.81;63.38;99440.78;4507535;26;19932;-73
2024/04/15 08:37:55;;;;;;;;;;;;;;;15.85;63.24;99428.63;4539489;26;19935;-74
2024/04/15 08:39:56;;;;;;;;;;;;;;;15.65;63.97;99431.94;4538935;26;19948;-73
2024/04/15 08:42:02;;;;;;;;;;;;;;;15.66;64.15;99420.16;4538649;26;19935;-74
2024/04/15 08:44:05;;;;;;;;;;;;;;;15.80;64.07;99422.94;4537851;26;19934;-75
2024/04/15 08:46:07;;;;;;;;;;;;;;;16.37;63.01;99407.66;4505190;26;20602;-74
2024/04/15 08:48:11;;;;;;;;;;;;;;;16.22;64.13;99421.25;4537297;26;20551;-74
2024/04/15 08:50:11;;;;;;;;;;;;;;;16.16;63.37;99424.72;4536621;26;19932;-73
2024/04/15 08:52:16;;;;;;;;;;;;;;;15.95;63.49;99417.50;4536843;26;19928;-72
2024/04/15 08:54:16;;;;;;;;;;;;;;;16.04;64.04;99422.56;4537322;26;19956;-72
2024/04/15 08:56:16;;;;;;;;;;;;;;;16.21;63.65;99419.56;4537078;26;20570;-73
2024/04/15 08:58:17;;;;;;;;;;;;;;;16.28;63.02;99420.44;4537957;26;19928;-73
2024/04/15 09:00:18;;;;;;;;;;;;;;;16.10;62.66;99430.91;4548102;26;20564;-73
2024/04/15 09:02:18;;;;;;;;;;;;;;;16.30;62.79;99418.38;4536827;26;19928;-73
2024/04/15 09:04:19;;;;;;;;;;;;;;;16.34;62.52;99406.16;4537707;26;19935;-72
2024/04/15 09:06:20;;;;;;;;;;;;;;;16.37;62.64;99411.16;4505821;26;19978;-73
2024/04/15 09:08:20;;;;;;;;;;;;;;;16.22;62.29;99416.66;4536736;26;19968;-73
2024/04/15 09:10:20;;;;;;;;;;;;;;;15.92;62.16;99420.63;4504683;26;19932;-73
2024/04/15 09:12:21;;;;;;;;;;;;;;;15.80;62.86;99422.94;4535968;26;19928;-73
2024/04/15 09:14:21;;;;;;;;;;;;;;;16.11;62.68;99424.47;4536948;26;19936;-73
2024/04/15 09:16:21;;;;;;;;;;;;;;;16.34;62.14;99414.25;4536628;26;20001;-73
2024/04/15 09:18:22;;;;;;;;;;;;;;;16.59;62.91;99410.25;4536839;26;19928;-72
2024/04/15 09:20:22;;;;;;;;;;;;;;;16.18;63.15;99403.78;4538670;26;20387;-73
2024/04/15 09:22:29;;;;;;;;;;;;;;;16.41;61.68;99411.59;4539284;26;20014;-72
2024/04/15 09:24:29;;;;;;;;;;;;;;;16.17;61.35;99400.25;4539849;26;19932;-73
2024/04/15 09:26:29;;;;;;;;;;;;;;;16.08;61.42;99397.91;4539581;26;20380;-73
2024/04/15 09:28:30;;;;;;;;;;;;;;;16.41;60.74;99398.13;4538990;26;20457;-72
2024/04/15 09:30:33;;;;;;;;;;;;;;;16.31;60.29;99386.84;4539366;26;19928;-73
2024/04/15 09:32:35;;;;;;;;;;;;;;;16.27;60.10;99391.81;4507061;26;19928;-72
2024/04/15 09:34:36;;;;;;;;;;;;;;;16.01;60.19;99396.00;4539599;26;19996;-73
2024/04/15 09:36:40;;;;;;;;;;;;;;;16.05;60.43;99380.25;4539854;26;19928;-72
2024/04/15 09:38:41;;;;;;;;;;;;;;;16.12;59.82;99369.53;4539817;26;20350;-73
2024/04/15 09:40:42;;;;;;;;;;;;;;;16.04;60.20;99365.97;4539358;26;19928;-72
2024/04/15 09:42:43;;;;;;;;;;;;;;;16.28;60.12;99360.28;4539238;26;19935;-73
2024/04/15 09:44:46;;;;;;;;;;;;;;;16.30;58.79;99348.28;4539878;26;19928;-73
2024/04/15 09:46:47;;;;;;;;;;;;;;;16.44;58.35;99348.31;4539861;26;20022;-73
2024/04/15 09:48:48;;;;;;;;;;;;;;;16.30;58.25;99350.13;4539508;26;19928;-72
2024/04/15 09:50:52;;;;;;;;;;;;;;;16.60;57.66;99342.59;4538503;26;20356;-73
2024/04/15 09:52:59;;;;;;;;;;;;;;;16.60;57.15;99337.22;4539721;26;19932;-72
2024/04/15 09:55:06;;;;;;;;;;;;;;;16.36;57.09;99343.94;4507746;26;19928;-72
2024/04/15 09:57:12;;;;;;;;;;;;;;;16.59;57.03;99335.53;4537885;26;19983;-72
2024/04/15 09:59:13;;;;;;;;;;;;;;;17.02;56.23;99331.75;4539927;26;20423;-72
2024/04/15 10:01:19;;;;;;;;;;;;;;;16.83;56.34;99330.63;4538160;26;19928;-73
2024/04/15 10:03:20;;;;;;;;;;;;;;;16.73;56.74;99336.41;4507680;26;19929;-73
2024/04/15 10:05:25;;;;;;;;;;;;;;;16.74;57.62;99326.44;4539849;26;20415;-72
2024/04/15 10:07:27;;;;;;;;;;;;;;;16.65;58.50;99326.63;4540381;26;19934;-72
2024/04/15 10:09:27;;;;;;;;;;;;;;;17.19;57.77;99312.47;4540802;26;19934;-73
2024/04/15 10:11:28;;;;;;;;;;;;;;;16.99;58.23;99319.50;4540503;26;19928;-72
2024/04/15 10:13:29;;;;;;;;;;;;;;;16.84;58.07;99310.69;4541671;26;19938;-72
2024/04/15 10:15:30;;;;;;;;;;;;;;;16.89;57.96;99307.38;4539852;26;20377;-73
2024/04/15 10:17:30;;;;;;;;;;;;;;;17.04;57.80;99309.94;4539256;26;19939;-73
2024/04/15 10:19:32;;;;;;;;;;;;;;;17.21;57.24;99307.69;4507406;26;20002;-73
2024/04/15 10:21:34;;;;;;;;;;;;;;;17.06;57.53;99307.88;4538230;26;19939;-73
2024/04/15 10:23:34;;;;;;;;;;;;;;;17.35;56.88;99303.94;4539041;26;20054;-73
2024/04/15 10:25:35;;;;;;;;;;;;;;;17.20;56.28;99312.25;4539434;26;19932;-72
2024/04/15 10:27:35;;;;;;;;;;;;;;;17.20;55.68;99308.72;4539011;26;19927;-72
2024/04/15 10:29:39;;;;;;;;;;;;;;;16.76;56.44;99313.59;4538105;26;19935;-73